TCBA weather

Tucabia Oval Helicopter Landing Site
Tucabia, New South Wales, Australia

Public forecast

Using degrees Celsius for public forecast. Weather courtesy of forecast.io.

Closest aviation weather report (METAR) to Tucabia Oval Helicopter Landing Site

Closest report is Grafton Airport, 7.2 nm (13.2 km) SSW. Retrieved 2019/10/21 19:00 UTC (39 minutes ago):

YGFN 211900Z AUTO 00000KT 9999 // NCD 09/07 Q1025

Closest aviation forecast (TAF) to Tucabia Oval Helicopter Landing Site

Closest forecast is Gold Coast Airport, 92.2 nm (170.8 km) NNE. Retrieved 2019/10/21 18:00 UTC (2 hours ago):

TAF YBCG 211702Z 2118/2218 17007KT 9999 -SHRA FEW020 SCT040 FM220100 12015KT 9999 FEW035 FM220900 21007KT 9999 FEW025 SCT040